sensor_id;sensor_type;location;lat;lon;timestamp;P1;durP1;ratioP1;P2;durP2;ratioP2
40621;SDS011;26324;52.040;11.528;2024-02-21T00:01:25;8.40;;;1.45;;
40621;SDS011;26324;52.040;11.528;2024-02-21T00:03:52;10.23;;;2.33;;
40621;SDS011;26324;52.040;11.528;2024-02-21T00:06:19;4.20;;;1.08;;
40621;SDS011;26324;52.040;11.528;2024-02-21T00:08:47;3.97;;;1.25;;
40621;SDS011;26324;52.040;11.528;2024-02-21T00:11:14;8.45;;;1.70;;
40621;SDS011;26324;52.040;11.528;2024-02-21T00:13:42;7.20;;;1.48;;
40621;SDS011;26324;52.040;11.528;2024-02-21T00:16:09;5.60;;;1.30;;
40621;SDS011;26324;52.040;11.528;2024-02-21T00:18:38;3.67;;;1.40;;
40621;SDS011;26324;52.040;11.528;2024-02-21T00:21:05;2.65;;;1.08;;
40621;SDS011;26324;52.040;11.528;2024-02-21T00:23:32;8.77;;;1.80;;
40621;SDS011;26324;52.040;11.528;2024-02-21T00:26:00;3.05;;;1.27;;
40621;SDS011;26324;52.040;11.528;2024-02-21T00:28:27;1.90;;;1.20;;
40621;SDS011;26324;52.040;11.528;2024-02-21T00:30:55;7.35;;;1.63;;
40621;SDS011;26324;52.040;11.528;2024-02-21T00:33:22;6.28;;;1.30;;
40621;SDS011;26324;52.040;11.528;2024-02-21T00:35:49;4.75;;;1.52;;
40621;SDS011;26324;52.040;11.528;2024-02-21T00:38:17;7.10;;;1.23;;
40621;SDS011;26324;52.040;11.528;2024-02-21T00:40:44;4.35;;;1.55;;
40621;SDS011;26324;52.040;11.528;2024-02-21T00:43:11;4.88;;;1.98;;
40621;SDS011;26324;52.040;11.528;2024-02-21T00:45:39;5.70;;;1.33;;
40621;SDS011;26324;52.040;11.528;2024-02-21T00:48:06;5.72;;;1.83;;
40621;SDS011;26324;52.040;11.528;2024-02-21T00:50:34;2.97;;;1.05;;
40621;SDS011;26324;52.040;11.528;2024-02-21T00:53:01;4.13;;;1.35;;
40621;SDS011;26324;52.040;11.528;2024-02-21T00:55:29;4.35;;;1.67;;
40621;SDS011;26324;52.040;11.528;2024-02-21T00:57:56;4.63;;;1.20;;
40621;SDS011;26324;52.040;11.528;2024-02-21T01:00:23;6.72;;;1.80;;
40621;SDS011;26324;52.040;11.528;2024-02-21T01:02:51;3.58;;;1.23;;
40621;SDS011;26324;52.040;11.528;2024-02-21T01:05:20;3.38;;;1.75;;
40621;SDS011;26324;52.040;11.528;2024-02-21T01:07:47;4.03;;;1.20;;
40621;SDS011;26324;52.040;11.528;2024-02-21T01:10:14;5.68;;;1.52;;
40621;SDS011;26324;52.040;11.528;2024-02-21T01:12:42;8.07;;;1.80;;
40621;SDS011;26324;52.040;11.528;2024-02-21T01:15:09;4.00;;;1.60;;
40621;SDS011;26324;52.040;11.528;2024-02-21T01:17:38;10.48;;;1.63;;
40621;SDS011;26324;52.040;11.528;2024-02-21T01:20:07;3.70;;;1.65;;
40621;SDS011;26324;52.040;11.528;2024-02-21T01:22:35;6.05;;;1.70;;
40621;SDS011;26324;52.040;11.528;2024-02-21T01:25:02;5.00;;;1.58;;
40621;SDS011;26324;52.040;11.528;2024-02-21T01:27:30;12.10;;;1.92;;
40621;SDS011;26324;52.040;11.528;2024-02-21T01:29:57;8.65;;;1.90;;
40621;SDS011;26324;52.040;11.528;2024-02-21T01:32:25;7.78;;;2.00;;
40621;SDS011;26324;52.040;11.528;2024-02-21T01:34:52;7.18;;;2.15;;
40621;SDS011;26324;52.040;11.528;2024-02-21T01:37:20;7.88;;;1.92;;
40621;SDS011;26324;52.040;11.528;2024-02-21T01:39:47;3.05;;;1.38;;
40621;SDS011;26324;52.040;11.528;2024-02-21T01:42:16;5.40;;;1.40;;
40621;SDS011;26324;52.040;11.528;2024-02-21T01:44:43;5.30;;;2.00;;
40621;SDS011;26324;52.040;11.528;2024-02-21T01:47:11;6.10;;;1.77;;
40621;SDS011;26324;52.040;11.528;2024-02-21T01:49:41;4.40;;;1.67;;
40621;SDS011;26324;52.040;11.528;2024-02-21T01:52:08;3.80;;;1.45;;
40621;SDS011;26324;52.040;11.528;2024-02-21T01:54:38;9.48;;;1.42;;
40621;SDS011;26324;52.040;11.528;2024-02-21T01:57:06;6.07;;;2.22;;
40621;SDS011;26324;52.040;11.528;2024-02-21T01:59:34;2.47;;;1.38;;
40621;SDS011;26324;52.040;11.528;2024-02-21T02:02:02;5.00;;;1.40;;
40621;SDS011;26324;52.040;11.528;2024-02-21T02:04:30;3.42;;;1.42;;
40621;SDS011;26324;52.040;11.528;2024-02-21T02:06:59;3.05;;;1.85;;
40621;SDS011;26324;52.040;11.528;2024-02-21T02:09:29;2.47;;;1.65;;
40621;SDS011;26324;52.040;11.528;2024-02-21T02:11:56;3.53;;;1.60;;
40621;SDS011;26324;52.040;11.528;2024-02-21T02:14:25;3.15;;;1.70;;
40621;SDS011;26324;52.040;11.528;2024-02-21T02:16:52;7.60;;;1.55;;
40621;SDS011;26324;52.040;11.528;2024-02-21T02:19:20;6.45;;;1.83;;
40621;SDS011;26324;52.040;11.528;2024-02-21T02:21:52;4.90;;;1.63;;
40621;SDS011;26324;52.040;11.528;2024-02-21T02:24:24;6.03;;;1.98;;
40621;SDS011;26324;52.040;11.528;2024-02-21T02:26:54;3.35;;;1.65;;
40621;SDS011;26324;52.040;11.528;2024-02-21T02:29:21;4.85;;;1.73;;
40621;SDS011;26324;52.040;11.528;2024-02-21T02:31:49;7.97;;;2.28;;
40621;SDS011;26324;52.040;11.528;2024-02-21T02:34:16;2.10;;;1.30;;
40621;SDS011;26324;52.040;11.528;2024-02-21T02:36:44;6.03;;;1.90;;
40621;SDS011;26324;52.040;11.528;2024-02-21T02:39:11;6.03;;;1.48;;
40621;SDS011;26324;52.040;11.528;2024-02-21T02:41:38;3.45;;;1.35;;
40621;SDS011;26324;52.040;11.528;2024-02-21T02:44:05;4.43;;;1.85;;
40621;SDS011;26324;52.040;11.528;2024-02-21T02:46:33;5.18;;;2.03;;
40621;SDS011;26324;52.040;11.528;2024-02-21T02:49:01;4.40;;;1.55;;
40621;SDS011;26324;52.040;11.528;2024-02-21T02:51:28;3.88;;;1.90;;
40621;SDS011;26324;52.040;11.528;2024-02-21T02:53:56;6.95;;;2.03;;
40621;SDS011;26324;52.040;11.528;2024-02-21T02:56:24;5.68;;;2.40;;
40621;SDS011;26324;52.040;11.528;2024-02-21T02:58:51;6.28;;;1.67;;
40621;SDS011;26324;52.040;11.528;2024-02-21T03:01:18;7.60;;;2.17;;
40621;SDS011;26324;52.040;11.528;2024-02-21T03:03:46;6.10;;;1.65;;
40621;SDS011;26324;52.040;11.528;2024-02-21T03:06:14;7.32;;;2.20;;
40621;SDS011;26324;52.040;11.528;2024-02-21T03:08:41;5.65;;;2.10;;
40621;SDS011;26324;52.040;11.528;2024-02-21T03:11:09;10.40;;;2.85;;
40621;SDS011;26324;52.040;11.528;2024-02-21T03:13:38;4.38;;;1.83;;
40621;SDS011;26324;52.040;11.528;2024-02-21T03:16:05;6.20;;;2.45;;
40621;SDS011;26324;52.040;11.528;2024-02-21T03:18:33;8.15;;;2.08;;
40621;SDS011;26324;52.040;11.528;2024-02-21T03:21:00;6.82;;;2.47;;
40621;SDS011;26324;52.040;11.528;2024-02-21T03:23:27;7.30;;;2.15;;
40621;SDS011;26324;52.040;11.528;2024-02-21T03:25:55;9.98;;;2.13;;
40621;SDS011;26324;52.040;11.528;2024-02-21T03:28:22;7.65;;;2.72;;
40621;SDS011;26324;52.040;11.528;2024-02-21T03:30:49;3.80;;;1.67;;
40621;SDS011;26324;52.040;11.528;2024-02-21T03:33:17;5.53;;;2.95;;
40621;SDS011;26324;52.040;11.528;2024-02-21T03:35:44;7.75;;;2.40;;
40621;SDS011;26324;52.040;11.528;2024-02-21T03:38:11;7.40;;;2.88;;
40621;SDS011;26324;52.040;11.528;2024-02-21T03:40:39;6.65;;;2.20;;
40621;SDS011;26324;52.040;11.528;2024-02-21T03:43:06;5.60;;;2.72;;
40621;SDS011;26324;52.040;11.528;2024-02-21T03:45:34;9.13;;;3.05;;
40621;SDS011;26324;52.040;11.528;2024-02-21T03:48:01;4.85;;;2.65;;
40621;SDS011;26324;52.040;11.528;2024-02-21T03:50:29;5.15;;;2.03;;
40621;SDS011;26324;52.040;11.528;2024-02-21T03:52:56;6.80;;;2.03;;
40621;SDS011;26324;52.040;11.528;2024-02-21T03:55:24;5.90;;;2.13;;
40621;SDS011;26324;52.040;11.528;2024-02-21T03:57:51;5.40;;;2.10;;
40621;SDS011;26324;52.040;11.528;2024-02-21T04:00:19;4.72;;;2.45;;
40621;SDS011;26324;52.040;11.528;2024-02-21T04:02:46;9.00;;;3.05;;
40621;SDS011;26324;52.040;11.528;2024-02-21T04:05:15;8.40;;;2.72;;
40621;SDS011;26324;52.040;11.528;2024-02-21T04:07:43;5.38;;;1.98;;
40621;SDS011;26324;52.040;11.528;2024-02-21T04:10:10;4.43;;;2.15;;
40621;SDS011;26324;52.040;11.528;2024-02-21T04:12:39;7.57;;;3.05;;
40621;SDS011;26324;52.040;11.528;2024-02-21T04:15:06;6.60;;;2.70;;
40621;SDS011;26324;52.040;11.528;2024-02-21T04:17:34;4.68;;;1.83;;
40621;SDS011;26324;52.040;11.528;2024-02-21T04:20:04;9.07;;;2.65;;
40621;SDS011;26324;52.040;11.528;2024-02-21T04:22:34;5.72;;;3.22;;
40621;SDS011;26324;52.040;11.528;2024-02-21T04:25:02;7.25;;;3.03;;
40621;SDS011;26324;52.040;11.528;2024-02-21T04:27:29;5.50;;;2.20;;
40621;SDS011;26324;52.040;11.528;2024-02-21T04:29:56;5.90;;;2.35;;
40621;SDS011;26324;52.040;11.528;2024-02-21T04:32:24;7.60;;;2.88;;
40621;SDS011;26324;52.040;11.528;2024-02-21T04:34:51;5.82;;;2.63;;
40621;SDS011;26324;52.040;11.528;2024-02-21T04:37:19;7.75;;;2.80;;
40621;SDS011;26324;52.040;11.528;2024-02-21T04:39:48;6.00;;;2.45;;
40621;SDS011;26324;52.040;11.528;2024-02-21T04:42:16;10.98;;;3.80;;
40621;SDS011;26324;52.040;11.528;2024-02-21T04:44:43;8.52;;;3.08;;
40621;SDS011;26324;52.040;11.528;2024-02-21T04:47:11;3.67;;;1.95;;
40621;SDS011;26324;52.040;11.528;2024-02-21T04:49:38;6.90;;;2.92;;
40621;SDS011;26324;52.040;11.528;2024-02-21T04:52:06;8.68;;;2.58;;
40621;SDS011;26324;52.040;11.528;2024-02-21T04:54:33;7.72;;;3.40;;
40621;SDS011;26324;52.040;11.528;2024-02-21T04:57:02;5.10;;;2.00;;
40621;SDS011;26324;52.040;11.528;2024-02-21T04:59:30;7.47;;;2.38;;
40621;SDS011;26324;52.040;11.528;2024-02-21T05:01:57;5.88;;;2.53;;
40621;SDS011;26324;52.040;11.528;2024-02-21T05:04:26;6.82;;;1.92;;
40621;SDS011;26324;52.040;11.528;2024-02-21T05:06:53;3.70;;;1.50;;
40621;SDS011;26324;52.040;11.528;2024-02-21T05:09:21;3.97;;;1.73;;
40621;SDS011;26324;52.040;11.528;2024-02-21T05:11:49;3.40;;;1.48;;
40621;SDS011;26324;52.040;11.528;2024-02-21T05:14:16;6.38;;;2.30;;
40621;SDS011;26324;52.040;11.528;2024-02-21T05:16:43;6.80;;;2.13;;
40621;SDS011;26324;52.040;11.528;2024-02-21T05:19:11;6.68;;;2.08;;
40621;SDS011;26324;52.040;11.528;2024-02-21T05:21:38;4.05;;;1.77;;
40621;SDS011;26324;52.040;11.528;2024-02-21T05:24:05;9.43;;;2.00;;
40621;SDS011;26324;52.040;11.528;2024-02-21T05:26:33;7.38;;;2.17;;
40621;SDS011;26324;52.040;11.528;2024-02-21T05:29:00;5.28;;;2.10;;
40621;SDS011;26324;52.040;11.528;2024-02-21T05:31:42;6.35;;;2.65;;
40621;SDS011;26324;52.040;11.528;2024-02-21T05:34:20;6.78;;;2.25;;
40621;SDS011;26324;52.040;11.528;2024-02-21T05:36:48;5.72;;;2.00;;
40621;SDS011;26324;52.040;11.528;2024-02-21T05:39:19;6.18;;;2.38;;
40621;SDS011;26324;52.040;11.528;2024-02-21T05:41:49;6.03;;;2.47;;
40621;SDS011;26324;52.040;11.528;2024-02-21T05:44:17;5.50;;;2.63;;
40621;SDS011;26324;52.040;11.528;2024-02-21T05:46:45;8.55;;;2.40;;
40621;SDS011;26324;52.040;11.528;2024-02-21T05:49:13;6.15;;;2.53;;
40621;SDS011;26324;52.040;11.528;2024-02-21T05:51:41;6.63;;;3.22;;
40621;SDS011;26324;52.040;11.528;2024-02-21T05:54:08;7.35;;;2.83;;
40621;SDS011;26324;52.040;11.528;2024-02-21T05:56:36;8.05;;;2.97;;
40621;SDS011;26324;52.040;11.528;2024-02-21T05:59:03;4.57;;;2.10;;
40621;SDS011;26324;52.040;11.528;2024-02-21T06:01:30;5.82;;;2.50;;
40621;SDS011;26324;52.040;11.528;2024-02-21T06:03:58;6.60;;;2.08;;
40621;SDS011;26324;52.040;11.528;2024-02-21T06:06:25;6.72;;;3.00;;
40621;SDS011;26324;52.040;11.528;2024-02-21T06:08:52;5.60;;;2.50;;
40621;SDS011;26324;52.040;11.528;2024-02-21T06:11:20;5.40;;;2.45;;
40621;SDS011;26324;52.040;11.528;2024-02-21T06:13:47;8.77;;;2.92;;
40621;SDS011;26324;52.040;11.528;2024-02-21T06:16:15;4.20;;;2.13;;
40621;SDS011;26324;52.040;11.528;2024-02-21T06:18:42;11.80;;;2.97;;
40621;SDS011;26324;52.040;11.528;2024-02-21T06:21:09;8.13;;;3.42;;
40621;SDS011;26324;52.040;11.528;2024-02-21T06:23:38;7.90;;;2.85;;
40621;SDS011;26324;52.040;11.528;2024-02-21T06:26:06;6.13;;;2.78;;
40621;SDS011;26324;52.040;11.528;2024-02-21T06:28:33;5.72;;;2.45;;
40621;SDS011;26324;52.040;11.528;2024-02-21T06:31:00;7.00;;;3.22;;
40621;SDS011;26324;52.040;11.528;2024-02-21T06:33:28;7.20;;;3.25;;
40621;SDS011;26324;52.040;11.528;2024-02-21T06:35:55;7.28;;;3.28;;
40621;SDS011;26324;52.040;11.528;2024-02-21T06:38:23;10.10;;;2.90;;
40621;SDS011;26324;52.040;11.528;2024-02-21T06:40:51;10.07;;;3.08;;
40621;SDS011;26324;52.040;11.528;2024-02-21T06:43:20;5.78;;;2.97;;
40621;SDS011;26324;52.040;11.528;2024-02-21T06:45:47;9.90;;;3.40;;
40621;SDS011;26324;52.040;11.528;2024-02-21T06:48:18;4.65;;;2.67;;
40621;SDS011;26324;52.040;11.528;2024-02-21T06:50:46;10.93;;;3.65;;
40621;SDS011;26324;52.040;11.528;2024-02-21T06:53:14;8.85;;;3.40;;
40621;SDS011;26324;52.040;11.528;2024-02-21T06:55:41;9.20;;;3.15;;
40621;SDS011;26324;52.040;11.528;2024-02-21T06:58:08;6.03;;;2.85;;
40621;SDS011;26324;52.040;11.528;2024-02-21T07:00:39;9.98;;;3.25;;
40621;SDS011;26324;52.040;11.528;2024-02-21T07:03:07;8.68;;;3.67;;
40621;SDS011;26324;52.040;11.528;2024-02-21T07:05:35;16.25;;;5.15;;
40621;SDS011;26324;52.040;11.528;2024-02-21T07:08:03;9.82;;;4.82;;
40621;SDS011;26324;52.040;11.528;2024-02-21T07:10:30;10.35;;;4.38;;
40621;SDS011;26324;52.040;11.528;2024-02-21T07:12:58;5.40;;;2.95;;
40621;SDS011;26324;52.040;11.528;2024-02-21T07:15:25;7.75;;;2.88;;
40621;SDS011;26324;52.040;11.528;2024-02-21T07:17:53;7.18;;;3.00;;
40621;SDS011;26324;52.040;11.528;2024-02-21T07:20:21;8.27;;;2.58;;
40621;SDS011;26324;52.040;11.528;2024-02-21T07:22:48;7.20;;;2.92;;
40621;SDS011;26324;52.040;11.528;2024-02-21T07:25:16;3.65;;;2.13;;
40621;SDS011;26324;52.040;11.528;2024-02-21T07:27:44;8.52;;;2.47;;
40621;SDS011;26324;52.040;11.528;2024-02-21T07:30:12;6.15;;;2.45;;
40621;SDS011;26324;52.040;11.528;2024-02-21T07:32:43;4.20;;;1.77;;
40621;SDS011;26324;52.040;11.528;2024-02-21T07:35:11;5.00;;;2.10;;
40621;SDS011;26324;52.040;11.528;2024-02-21T07:37:39;4.22;;;2.33;;
40621;SDS011;26324;52.040;11.528;2024-02-21T07:40:11;5.72;;;2.70;;
40621;SDS011;26324;52.040;11.528;2024-02-21T07:42:43;4.65;;;1.65;;
40621;SDS011;26324;52.040;11.528;2024-02-21T07:45:15;4.68;;;2.22;;
40621;SDS011;26324;52.040;11.528;2024-02-21T07:47:43;3.72;;;2.20;;
40621;SDS011;26324;52.040;11.528;2024-02-21T07:50:10;5.10;;;2.33;;
40621;SDS011;26324;52.040;11.528;2024-02-21T07:52:38;4.93;;;1.98;;
40621;SDS011;26324;52.040;11.528;2024-02-21T07:55:05;5.03;;;1.60;;
40621;SDS011;26324;52.040;11.528;2024-02-21T07:57:33;3.80;;;2.00;;
40621;SDS011;26324;52.040;11.528;2024-02-21T08:00:00;3.92;;;1.60;;
40621;SDS011;26324;52.040;11.528;2024-02-21T08:02:38;9.32;;;3.22;;
40621;SDS011;26324;52.040;11.528;2024-02-21T08:05:05;5.72;;;2.70;;
40621;SDS011;26324;52.040;11.528;2024-02-21T08:07:33;6.93;;;2.60;;
40621;SDS011;26324;52.040;11.528;2024-02-21T08:10:00;6.25;;;2.13;;
40621;SDS011;26324;52.040;11.528;2024-02-21T08:12:28;6.82;;;3.20;;
40621;SDS011;26324;52.040;11.528;2024-02-21T08:14:55;7.10;;;2.53;;
40621;SDS011;26324;52.040;11.528;2024-02-21T08:17:23;6.82;;;2.47;;
40621;SDS011;26324;52.040;11.528;2024-02-21T08:19:50;6.78;;;2.42;;
40621;SDS011;26324;52.040;11.528;2024-02-21T08:22:18;5.22;;;2.00;;
40621;SDS011;26324;52.040;11.528;2024-02-21T08:24:45;4.85;;;2.38;;
40621;SDS011;26324;52.040;11.528;2024-02-21T08:27:12;5.93;;;2.17;;
40621;SDS011;26324;52.040;11.528;2024-02-21T08:29:40;6.88;;;2.50;;
40621;SDS011;26324;52.040;11.528;2024-02-21T08:32:07;10.55;;;2.97;;
40621;SDS011;26324;52.040;11.528;2024-02-21T08:34:35;6.47;;;3.17;;
40621;SDS011;26324;52.040;11.528;2024-02-21T08:37:02;7.95;;;3.13;;
40621;SDS011;26324;52.040;11.528;2024-02-21T08:39:30;6.60;;;2.47;;
40621;SDS011;26324;52.040;11.528;2024-02-21T08:41:57;5.07;;;2.03;;
40621;SDS011;26324;52.040;11.528;2024-02-21T08:44:25;5.65;;;2.80;;
40621;SDS011;26324;52.040;11.528;2024-02-21T08:46:54;5.85;;;2.53;;
40621;SDS011;26324;52.040;11.528;2024-02-21T08:49:23;7.03;;;2.75;;
40621;SDS011;26324;52.040;11.528;2024-02-21T08:51:57;7.28;;;2.35;;
40621;SDS011;26324;52.040;11.528;2024-02-21T08:54:25;4.43;;;1.95;;
40621;SDS011;26324;52.040;11.528;2024-02-21T08:56:52;5.72;;;2.33;;
40621;SDS011;26324;52.040;11.528;2024-02-21T08:59:20;4.22;;;2.40;;
40621;SDS011;26324;52.040;11.528;2024-02-21T09:01:48;5.07;;;2.53;;
40621;SDS011;26324;52.040;11.528;2024-02-21T09:04:15;6.90;;;3.33;;
40621;SDS011;26324;52.040;11.528;2024-02-21T09:06:43;6.90;;;2.35;;
40621;SDS011;26324;52.040;11.528;2024-02-21T09:09:12;3.95;;;1.88;;
40621;SDS011;26324;52.040;11.528;2024-02-21T09:11:39;5.70;;;2.53;;
40621;SDS011;26324;52.040;11.528;2024-02-21T09:14:07;5.55;;;2.10;;
40621;SDS011;26324;52.040;11.528;2024-02-21T09:16:35;3.60;;;2.08;;
40621;SDS011;26324;52.040;11.528;2024-02-21T09:19:02;6.38;;;2.20;;
40621;SDS011;26324;52.040;11.528;2024-02-21T09:21:30;6.55;;;2.58;;
40621;SDS011;26324;52.040;11.528;2024-02-21T09:23:57;6.40;;;2.70;;
40621;SDS011;26324;52.040;11.528;2024-02-21T09:26:26;5.35;;;2.20;;
40621;SDS011;26324;52.040;11.528;2024-02-21T09:28:54;5.13;;;1.70;;
40621;SDS011;26324;52.040;11.528;2024-02-21T09:31:21;6.43;;;2.03;;
40621;SDS011;26324;52.040;11.528;2024-02-21T09:33:49;4.05;;;2.08;;
40621;SDS011;26324;52.040;11.528;2024-02-21T09:36:16;5.20;;;1.80;;
40621;SDS011;26324;52.040;11.528;2024-02-21T09:38:44;3.65;;;1.67;;
40621;SDS011;26324;52.040;11.528;2024-02-21T09:41:15;6.00;;;1.77;;
40621;SDS011;26324;52.040;11.528;2024-02-21T09:43:52;5.25;;;2.05;;
40621;SDS011;26324;52.040;11.528;2024-02-21T09:46:45;11.07;;;2.53;;
40621;SDS011;26324;52.040;11.528;2024-02-21T09:52:05;4.93;;;1.63;;
40621;SDS011;26324;52.040;11.528;2024-02-21T09:54:33;7.03;;;1.90;;
40621;SDS011;26324;52.040;11.528;2024-02-21T09:57:02;5.05;;;1.70;;
40621;SDS011;26324;52.040;11.528;2024-02-21T10:01:58;6.03;;;1.55;;
40621;SDS011;26324;52.040;11.528;2024-02-21T10:04:30;4.30;;;1.85;;
40621;SDS011;26324;52.040;11.528;2024-02-21T10:06:58;6.22;;;2.10;;
40621;SDS011;26324;52.040;11.528;2024-02-21T10:09:26;4.68;;;2.28;;
40621;SDS011;26324;52.040;11.528;2024-02-21T10:11:56;7.30;;;2.25;;
40621;SDS011;26324;52.040;11.528;2024-02-21T10:14:33;3.83;;;1.40;;
40621;SDS011;26324;52.040;11.528;2024-02-21T10:17:01;2.60;;;1.23;;
40621;SDS011;26324;52.040;11.528;2024-02-21T10:19:29;2.85;;;1.27;;
40621;SDS011;26324;52.040;11.528;2024-02-21T10:22:07;2.75;;;1.10;;
40621;SDS011;26324;52.040;11.528;2024-02-21T10:24:37;2.15;;;0.85;;
40621;SDS011;26324;52.040;11.528;2024-02-21T10:27:10;3.33;;;1.40;;
40621;SDS011;26324;52.040;11.528;2024-02-21T10:29:39;3.00;;;0.73;;
40621;SDS011;26324;52.040;11.528;2024-02-21T10:32:12;2.60;;;1.13;;
40621;SDS011;26324;52.040;11.528;2024-02-21T10:34:41;2.05;;;0.88;;
40621;SDS011;26324;52.040;11.528;2024-02-21T10:37:11;3.90;;;1.38;;
40621;SDS011;26324;52.040;11.528;2024-02-21T10:39:39;3.60;;;1.58;;
40621;SDS011;26324;52.040;11.528;2024-02-21T10:44:37;3.72;;;1.30;;
40621;SDS011;26324;52.040;11.528;2024-02-21T10:47:10;5.75;;;1.73;;
40621;SDS011;26324;52.040;11.528;2024-02-21T10:49:41;4.90;;;1.75;;
40621;SDS011;26324;52.040;11.528;2024-02-21T10:52:15;3.28;;;1.20;;
40621;SDS011;26324;52.040;11.528;2024-02-21T10:54:57;6.25;;;2.38;;
40621;SDS011;26324;52.040;11.528;2024-02-21T10:57:33;7.85;;;1.80;;
40621;SDS011;26324;52.040;11.528;2024-02-21T11:00:03;3.72;;;1.60;;
40621;SDS011;26324;52.040;11.528;2024-02-21T11:02:35;5.07;;;1.58;;
40621;SDS011;26324;52.040;11.528;2024-02-21T11:05:03;3.75;;;1.45;;
40621;SDS011;26324;52.040;11.528;2024-02-21T11:07:32;2.65;;;1.38;;
40621;SDS011;26324;52.040;11.528;2024-02-21T11:10:04;5.85;;;2.08;;
40621;SDS011;26324;52.040;11.528;2024-02-21T11:12:34;3.40;;;1.67;;
40621;SDS011;26324;52.040;11.528;2024-02-21T11:15:05;5.07;;;1.92;;
40621;SDS011;26324;52.040;11.528;2024-02-21T11:17:33;6.00;;;1.98;;
40621;SDS011;26324;52.040;11.528;2024-02-21T11:20:16;3.55;;;1.20;;
40621;SDS011;26324;52.040;11.528;2024-02-21T11:22:43;4.63;;;1.05;;
40621;SDS011;26324;52.040;11.528;2024-02-21T11:25:11;4.35;;;1.60;;
40621;SDS011;26324;52.040;11.528;2024-02-21T11:27:39;3.88;;;1.63;;
40621;SDS011;26324;52.040;11.528;2024-02-21T11:30:12;7.63;;;1.80;;
40621;SDS011;26324;52.040;11.528;2024-02-21T11:32:41;4.40;;;1.63;;
40621;SDS011;26324;52.040;11.528;2024-02-21T11:35:09;3.60;;;1.65;;
40621;SDS011;26324;52.040;11.528;2024-02-21T11:37:46;3.22;;;1.38;;
40621;SDS011;26324;52.040;11.528;2024-02-21T11:40:14;2.70;;;1.50;;
40621;SDS011;26324;52.040;11.528;2024-02-21T11:42:42;4.65;;;1.73;;
40621;SDS011;26324;52.040;11.528;2024-02-21T11:45:10;2.15;;;1.25;;
40621;SDS011;26324;52.040;11.528;2024-02-21T11:47:37;2.50;;;1.20;;
40621;SDS011;26324;52.040;11.528;2024-02-21T11:50:09;4.07;;;1.33;;
40621;SDS011;26324;52.040;11.528;2024-02-21T11:52:38;4.82;;;1.50;;
40621;SDS011;26324;52.040;11.528;2024-02-21T11:55:06;6.13;;;1.48;;
40621;SDS011;26324;52.040;11.528;2024-02-21T11:57:37;6.72;;;2.08;;
40621;SDS011;26324;52.040;11.528;2024-02-21T12:00:15;5.72;;;1.70;;
40621;SDS011;26324;52.040;11.528;2024-02-21T12:02:44;6.32;;;2.13;;
40621;SDS011;26324;52.040;11.528;2024-02-21T12:05:14;7.40;;;1.92;;
40621;SDS011;26324;52.040;11.528;2024-02-21T12:07:42;3.92;;;1.70;;
40621;SDS011;26324;52.040;11.528;2024-02-21T12:10:10;4.82;;;1.60;;
40621;SDS011;26324;52.040;11.528;2024-02-21T12:12:38;6.45;;;1.60;;
40621;SDS011;26324;52.040;11.528;2024-02-21T12:15:07;4.13;;;2.30;;
40621;SDS011;26324;52.040;11.528;2024-02-21T12:17:35;7.63;;;2.78;;
40621;SDS011;26324;52.040;11.528;2024-02-21T12:20:04;6.40;;;1.85;;
40621;SDS011;26324;52.040;11.528;2024-02-21T12:22:43;7.75;;;1.55;;
40621;SDS011;26324;52.040;11.528;2024-02-21T12:25:17;4.53;;;1.67;;
40621;SDS011;26324;52.040;11.528;2024-02-21T12:27:48;2.90;;;1.80;;
40621;SDS011;26324;52.040;11.528;2024-02-21T12:30:16;7.13;;;1.83;;
40621;SDS011;26324;52.040;11.528;2024-02-21T12:32:44;5.15;;;1.77;;
40621;SDS011;26324;52.040;11.528;2024-02-21T12:35:12;7.13;;;2.10;;
40621;SDS011;26324;52.040;11.528;2024-02-21T12:37:40;4.15;;;1.60;;
40621;SDS011;26324;52.040;11.528;2024-02-21T12:40:08;3.00;;;1.58;;
40621;SDS011;26324;52.040;11.528;2024-02-21T12:42:37;4.82;;;1.77;;
40621;SDS011;26324;52.040;11.528;2024-02-21T12:45:05;4.50;;;1.63;;
40621;SDS011;26324;52.040;11.528;2024-02-21T12:47:33;3.03;;;1.52;;
40621;SDS011;26324;52.040;11.528;2024-02-21T12:50:00;5.75;;;2.00;;
40621;SDS011;26324;52.040;11.528;2024-02-21T12:52:30;3.33;;;1.45;;
40621;SDS011;26324;52.040;11.528;2024-02-21T12:54:58;3.97;;;1.60;;
40621;SDS011;26324;52.040;11.528;2024-02-21T12:57:26;6.47;;;1.92;;
40621;SDS011;26324;52.040;11.528;2024-02-21T12:59:54;3.60;;;1.70;;
40621;SDS011;26324;52.040;11.528;2024-02-21T13:02:21;3.53;;;1.17;;
40621;SDS011;26324;52.040;11.528;2024-02-21T13:04:49;5.80;;;1.50;;
40621;SDS011;26324;52.040;11.528;2024-02-21T13:07:17;3.67;;;1.08;;
40621;SDS011;26324;52.040;11.528;2024-02-21T13:09:44;4.78;;;1.38;;
40621;SDS011;26324;52.040;11.528;2024-02-21T13:12:12;5.57;;;1.50;;
40621;SDS011;26324;52.040;11.528;2024-02-21T13:14:39;3.70;;;1.10;;
40621;SDS011;26324;52.040;11.528;2024-02-21T13:17:10;3.17;;;1.30;;
40621;SDS011;26324;52.040;11.528;2024-02-21T13:19:38;4.80;;;1.48;;
40621;SDS011;26324;52.040;11.528;2024-02-21T13:22:06;3.88;;;1.40;;
40621;SDS011;26324;52.040;11.528;2024-02-21T13:24:34;3.95;;;1.30;;
40621;SDS011;26324;52.040;11.528;2024-02-21T13:27:01;1.92;;;1.00;;
40621;SDS011;26324;52.040;11.528;2024-02-21T13:29:30;4.15;;;1.20;;
40621;SDS011;26324;52.040;11.528;2024-02-21T13:31:58;4.28;;;1.38;;
40621;SDS011;26324;52.040;11.528;2024-02-21T13:34:26;2.03;;;0.90;;
40621;SDS011;26324;52.040;11.528;2024-02-21T13:36:53;1.45;;;1.10;;
40621;SDS011;26324;52.040;11.528;2024-02-21T13:39:21;4.32;;;1.30;;
40621;SDS011;26324;52.040;11.528;2024-02-21T13:41:48;1.67;;;0.77;;
40621;SDS011;26324;52.040;11.528;2024-02-21T13:44:16;3.75;;;0.77;;
40621;SDS011;26324;52.040;11.528;2024-02-21T13:46:43;2.42;;;1.35;;
40621;SDS011;26324;52.040;11.528;2024-02-21T13:49:11;1.60;;;1.27;;
40621;SDS011;26324;52.040;11.528;2024-02-21T13:51:38;3.10;;;1.05;;
40621;SDS011;26324;52.040;11.528;2024-02-21T13:56:36;3.47;;;1.58;;
40621;SDS011;26324;52.040;11.528;2024-02-21T13:59:04;3.08;;;1.30;;
40621;SDS011;26324;52.040;11.528;2024-02-21T14:01:33;2.47;;;1.38;;
40621;SDS011;26324;52.040;11.528;2024-02-21T14:04:01;7.68;;;2.15;;
40621;SDS011;26324;52.040;11.528;2024-02-21T14:06:29;4.13;;;1.08;;
40621;SDS011;26324;52.040;11.528;2024-02-21T14:08:56;4.78;;;1.75;;
40621;SDS011;26324;52.040;11.528;2024-02-21T14:11:23;3.85;;;1.23;;
40621;SDS011;26324;52.040;11.528;2024-02-21T14:13:51;4.60;;;1.70;;
40621;SDS011;26324;52.040;11.528;2024-02-21T14:16:19;2.92;;;1.30;;
40621;SDS011;26324;52.040;11.528;2024-02-21T14:18:46;3.92;;;1.33;;
40621;SDS011;26324;52.040;11.528;2024-02-21T14:21:14;4.32;;;1.30;;
40621;SDS011;26324;52.040;11.528;2024-02-21T14:23:41;2.67;;;1.40;;
40621;SDS011;26324;52.040;11.528;2024-02-21T14:26:08;2.00;;;1.40;;
40621;SDS011;26324;52.040;11.528;2024-02-21T14:28:36;3.70;;;1.55;;
40621;SDS011;26324;52.040;11.528;2024-02-21T14:31:04;5.03;;;1.35;;
40621;SDS011;26324;52.040;11.528;2024-02-21T14:33:33;3.63;;;1.40;;
40621;SDS011;26324;52.040;11.528;2024-02-21T14:36:01;3.17;;;1.10;;
40621;SDS011;26324;52.040;11.528;2024-02-21T14:38:32;5.28;;;1.42;;
40621;SDS011;26324;52.040;11.528;2024-02-21T14:40:59;2.80;;;1.35;;
40621;SDS011;26324;52.040;11.528;2024-02-21T14:43:27;3.53;;;1.00;;
40621;SDS011;26324;52.040;11.528;2024-02-21T14:45:55;3.45;;;0.90;;
40621;SDS011;26324;52.040;11.528;2024-02-21T14:48:23;6.95;;;2.33;;
40621;SDS011;26324;52.040;11.528;2024-02-21T14:50:53;5.72;;;1.60;;